sensor_id;sensor_type;location;lat;lon;timestamp;P1;durP1;ratioP1;P2;durP2;ratioP2
31596;SDS011;18201;50.978;7.034;2023-01-25T00:00:21;25.88;;;20.27;;
31596;SDS011;18201;50.978;7.034;2023-01-25T00:00:53;27.70;;;21.35;;
31596;SDS011;18201;50.978;7.034;2023-01-25T00:01:24;27.52;;;20.90;;
31596;SDS011;18201;50.978;7.034;2023-01-25T00:01:55;27.98;;;21.30;;
31596;SDS011;18201;50.978;7.034;2023-01-25T00:02:28;25.42;;;20.38;;
31596;SDS011;18201;50.978;7.034;2023-01-25T00:03:00;29.77;;;20.98;;
31596;SDS011;18201;50.978;7.034;2023-01-25T00:03:31;27.02;;;21.20;;
31596;SDS011;18201;50.978;7.034;2023-01-25T00:04:03;28.60;;;21.83;;
31596;SDS011;18201;50.978;7.034;2023-01-25T00:04:34;25.38;;;20.33;;
31596;SDS011;18201;50.978;7.034;2023-01-25T00:05:06;28.13;;;22.27;;
31596;SDS011;18201;50.978;7.034;2023-01-25T00:05:38;29.20;;;23.13;;
31596;SDS011;18201;50.978;7.034;2023-01-25T00:06:09;29.75;;;22.75;;
31596;SDS011;18201;50.978;7.034;2023-01-25T00:06:40;27.83;;;22.30;;
31596;SDS011;18201;50.978;7.034;2023-01-25T00:07:12;27.48;;;21.70;;
31596;SDS011;18201;50.978;7.034;2023-01-25T00:07:43;25.35;;;21.48;;
31596;SDS011;18201;50.978;7.034;2023-01-25T00:08:15;28.85;;;22.13;;
31596;SDS011;18201;50.978;7.034;2023-01-25T00:08:47;27.80;;;21.75;;
31596;SDS011;18201;50.978;7.034;2023-01-25T00:09:19;25.52;;;20.88;;
31596;SDS011;18201;50.978;7.034;2023-01-25T00:09:51;28.65;;;21.88;;
31596;SDS011;18201;50.978;7.034;2023-01-25T00:10:22;31.83;;;22.38;;
31596;SDS011;18201;50.978;7.034;2023-01-25T00:10:53;27.20;;;21.15;;
31596;SDS011;18201;50.978;7.034;2023-01-25T00:11:24;29.10;;;21.17;;
31596;SDS011;18201;50.978;7.034;2023-01-25T00:11:55;28.23;;;21.45;;
31596;SDS011;18201;50.978;7.034;2023-01-25T00:12:27;29.95;;;22.58;;
31596;SDS011;18201;50.978;7.034;2023-01-25T00:12:59;32.33;;;22.63;;
31596;SDS011;18201;50.978;7.034;2023-01-25T00:13:29;29.58;;;23.17;;
31596;SDS011;18201;50.978;7.034;2023-01-25T00:14:00;28.88;;;21.33;;
31596;SDS011;18201;50.978;7.034;2023-01-25T00:14:32;30.17;;;22.33;;
31596;SDS011;18201;50.978;7.034;2023-01-25T00:15:03;26.52;;;21.48;;
31596;SDS011;18201;50.978;7.034;2023-01-25T00:15:35;28.27;;;22.33;;
31596;SDS011;18201;50.978;7.034;2023-01-25T00:16:08;29.88;;;21.70;;
31596;SDS011;18201;50.978;7.034;2023-01-25T00:16:39;27.77;;;21.77;;
31596;SDS011;18201;50.978;7.034;2023-01-25T00:17:11;27.25;;;21.23;;
31596;SDS011;18201;50.978;7.034;2023-01-25T00:17:44;28.30;;;21.65;;
31596;SDS011;18201;50.978;7.034;2023-01-25T00:18:16;27.33;;;21.08;;
31596;SDS011;18201;50.978;7.034;2023-01-25T00:18:47;26.20;;;20.83;;
31596;SDS011;18201;50.978;7.034;2023-01-25T00:19:20;26.88;;;20.95;;
31596;SDS011;18201;50.978;7.034;2023-01-25T00:19:53;26.98;;;20.58;;
31596;SDS011;18201;50.978;7.034;2023-01-25T00:20:24;27.23;;;21.85;;
31596;SDS011;18201;50.978;7.034;2023-01-25T00:20:57;28.98;;;21.17;;
31596;SDS011;18201;50.978;7.034;2023-01-25T00:21:28;28.73;;;21.67;;
31596;SDS011;18201;50.978;7.034;2023-01-25T00:21:59;26.45;;;21.10;;
31596;SDS011;18201;50.978;7.034;2023-01-25T00:22:31;28.33;;;20.58;;
31596;SDS011;18201;50.978;7.034;2023-01-25T00:23:03;29.85;;;22.08;;
31596;SDS011;18201;50.978;7.034;2023-01-25T00:23:34;28.02;;;22.05;;
31596;SDS011;18201;50.978;7.034;2023-01-25T00:24:05;27.38;;;21.70;;
31596;SDS011;18201;50.978;7.034;2023-01-25T00:24:40;28.65;;;21.73;;
31596;SDS011;18201;50.978;7.034;2023-01-25T00:25:11;27.30;;;22.77;;
31596;SDS011;18201;50.978;7.034;2023-01-25T00:25:43;27.83;;;21.80;;
31596;SDS011;18201;50.978;7.034;2023-01-25T00:26:15;27.98;;;22.75;;
31596;SDS011;18201;50.978;7.034;2023-01-25T00:26:46;30.30;;;22.27;;
31596;SDS011;18201;50.978;7.034;2023-01-25T00:27:18;27.48;;;21.77;;
31596;SDS011;18201;50.978;7.034;2023-01-25T00:27:49;29.00;;;22.83;;
31596;SDS011;18201;50.978;7.034;2023-01-25T00:28:21;27.58;;;21.55;;
31596;SDS011;18201;50.978;7.034;2023-01-25T00:28:53;31.08;;;23.58;;
31596;SDS011;18201;50.978;7.034;2023-01-25T00:29:28;27.73;;;21.85;;
31596;SDS011;18201;50.978;7.034;2023-01-25T00:30:00;29.92;;;23.23;;
31596;SDS011;18201;50.978;7.034;2023-01-25T00:30:31;32.15;;;22.83;;
31596;SDS011;18201;50.978;7.034;2023-01-25T00:31:02;27.40;;;21.80;;
31596;SDS011;18201;50.978;7.034;2023-01-25T00:31:36;29.10;;;22.08;;
31596;SDS011;18201;50.978;7.034;2023-01-25T00:33:32;27.48;;;20.50;;
31596;SDS011;18201;50.978;7.034;2023-01-25T00:35:10;32.20;;;22.38;;
31596;SDS011;18201;50.978;7.034;2023-01-25T00:35:46;28.13;;;20.88;;
31596;SDS011;18201;50.978;7.034;2023-01-25T00:36:27;29.88;;;22.88;;
31596;SDS011;18201;50.978;7.034;2023-01-25T00:37:09;30.17;;;21.63;;
31596;SDS011;18201;50.978;7.034;2023-01-25T00:37:45;30.17;;;22.70;;
31596;SDS011;18201;50.978;7.034;2023-01-25T00:38:23;31.05;;;22.52;;
31596;SDS011;18201;50.978;7.034;2023-01-25T00:38:58;36.00;;;22.60;;
31596;SDS011;18201;50.978;7.034;2023-01-25T00:39:30;31.50;;;22.73;;
31596;SDS011;18201;50.978;7.034;2023-01-25T00:40:02;30.50;;;22.60;;
31596;SDS011;18201;50.978;7.034;2023-01-25T00:40:34;27.20;;;21.52;;
31596;SDS011;18201;50.978;7.034;2023-01-25T00:41:06;27.52;;;22.23;;
31596;SDS011;18201;50.978;7.034;2023-01-25T00:41:40;32.72;;;23.40;;
31596;SDS011;18201;50.978;7.034;2023-01-25T00:42:12;30.63;;;22.45;;
31596;SDS011;18201;50.978;7.034;2023-01-25T00:42:44;30.85;;;23.40;;
31596;SDS011;18201;50.978;7.034;2023-01-25T00:43:16;28.67;;;22.13;;
31596;SDS011;18201;50.978;7.034;2023-01-25T00:43:47;29.73;;;22.40;;
31596;SDS011;18201;50.978;7.034;2023-01-25T00:44:19;28.80;;;22.38;;
31596;SDS011;18201;50.978;7.034;2023-01-25T00:44:50;29.10;;;22.67;;
31596;SDS011;18201;50.978;7.034;2023-01-25T00:45:30;27.58;;;22.02;;
31596;SDS011;18201;50.978;7.034;2023-01-25T00:46:04;29.27;;;22.08;;
31596;SDS011;18201;50.978;7.034;2023-01-25T00:46:35;29.20;;;22.00;;
31596;SDS011;18201;50.978;7.034;2023-01-25T00:47:08;30.95;;;22.20;;
31596;SDS011;18201;50.978;7.034;2023-01-25T00:47:39;28.73;;;22.30;;
31596;SDS011;18201;50.978;7.034;2023-01-25T00:48:16;28.00;;;21.40;;
31596;SDS011;18201;50.978;7.034;2023-01-25T00:48:47;30.40;;;22.45;;
31596;SDS011;18201;50.978;7.034;2023-01-25T00:49:23;29.90;;;22.48;;
31596;SDS011;18201;50.978;7.034;2023-01-25T00:49:57;30.02;;;23.92;;
31596;SDS011;18201;50.978;7.034;2023-01-25T00:50:28;30.83;;;22.42;;
31596;SDS011;18201;50.978;7.034;2023-01-25T00:51:00;30.02;;;22.48;;
31596;SDS011;18201;50.978;7.034;2023-01-25T00:51:36;29.73;;;22.48;;
31596;SDS011;18201;50.978;7.034;2023-01-25T00:52:07;26.58;;;21.70;;
31596;SDS011;18201;50.978;7.034;2023-01-25T00:52:39;27.08;;;21.55;;
31596;SDS011;18201;50.978;7.034;2023-01-25T00:53:11;28.55;;;22.67;;
31596;SDS011;18201;50.978;7.034;2023-01-25T00:53:43;27.73;;;22.45;;
31596;SDS011;18201;50.978;7.034;2023-01-25T00:54:14;29.67;;;22.30;;
31596;SDS011;18201;50.978;7.034;2023-01-25T00:54:47;27.67;;;21.70;;
31596;SDS011;18201;50.978;7.034;2023-01-25T00:55:18;26.55;;;21.30;;
31596;SDS011;18201;50.978;7.034;2023-01-25T00:55:50;28.90;;;20.95;;
31596;SDS011;18201;50.978;7.034;2023-01-25T00:56:22;25.33;;;20.17;;
31596;SDS011;18201;50.978;7.034;2023-01-25T00:56:54;27.05;;;21.40;;
31596;SDS011;18201;50.978;7.034;2023-01-25T00:57:25;27.40;;;20.88;;
31596;SDS011;18201;50.978;7.034;2023-01-25T00:57:57;28.50;;;22.33;;
31596;SDS011;18201;50.978;7.034;2023-01-25T00:58:29;26.88;;;21.63;;
31596;SDS011;18201;50.978;7.034;2023-01-25T00:59:00;27.02;;;20.30;;
31596;SDS011;18201;50.978;7.034;2023-01-25T00:59:32;26.42;;;20.48;;
31596;SDS011;18201;50.978;7.034;2023-01-25T01:00:04;29.35;;;22.50;;
31596;SDS011;18201;50.978;7.034;2023-01-25T01:00:36;29.40;;;22.27;;
31596;SDS011;18201;50.978;7.034;2023-01-25T01:01:08;27.60;;;22.60;;
31596;SDS011;18201;50.978;7.034;2023-01-25T01:01:40;27.85;;;22.02;;
31596;SDS011;18201;50.978;7.034;2023-01-25T01:02:12;27.25;;;21.48;;
31596;SDS011;18201;50.978;7.034;2023-01-25T01:02:44;27.73;;;20.48;;
31596;SDS011;18201;50.978;7.034;2023-01-25T01:03:16;25.42;;;21.25;;
31596;SDS011;18201;50.978;7.034;2023-01-25T01:03:50;30.52;;;23.80;;
31596;SDS011;18201;50.978;7.034;2023-01-25T01:04:22;29.50;;;23.13;;
31596;SDS011;18201;50.978;7.034;2023-01-25T01:04:54;27.48;;;21.60;;
31596;SDS011;18201;50.978;7.034;2023-01-25T01:05:26;29.13;;;22.15;;
31596;SDS011;18201;50.978;7.034;2023-01-25T01:05:59;29.35;;;23.50;;
31596;SDS011;18201;50.978;7.034;2023-01-25T01:06:31;27.13;;;22.35;;
31596;SDS011;18201;50.978;7.034;2023-01-25T01:07:04;30.17;;;23.02;;
31596;SDS011;18201;50.978;7.034;2023-01-25T01:07:36;27.10;;;21.98;;
31596;SDS011;18201;50.978;7.034;2023-01-25T01:08:08;30.38;;;22.75;;
31596;SDS011;18201;50.978;7.034;2023-01-25T01:08:40;27.45;;;21.17;;
31596;SDS011;18201;50.978;7.034;2023-01-25T01:09:12;26.48;;;20.42;;
31596;SDS011;18201;50.978;7.034;2023-01-25T01:09:46;27.63;;;21.60;;
31596;SDS011;18201;50.978;7.034;2023-01-25T01:10:17;28.02;;;22.17;;
31596;SDS011;18201;50.978;7.034;2023-01-25T01:10:51;27.42;;;21.25;;
31596;SDS011;18201;50.978;7.034;2023-01-25T01:11:30;28.70;;;23.08;;
31596;SDS011;18201;50.978;7.034;2023-01-25T01:12:01;28.85;;;22.33;;
31596;SDS011;18201;50.978;7.034;2023-01-25T01:12:32;29.63;;;22.65;;
31596;SDS011;18201;50.978;7.034;2023-01-25T01:13:05;31.35;;;23.00;;
31596;SDS011;18201;50.978;7.034;2023-01-25T01:13:36;28.92;;;22.85;;
31596;SDS011;18201;50.978;7.034;2023-01-25T01:14:08;27.60;;;22.33;;
31596;SDS011;18201;50.978;7.034;2023-01-25T01:14:40;30.38;;;23.45;;
31596;SDS011;18201;50.978;7.034;2023-01-25T01:15:15;29.67;;;22.63;;
31596;SDS011;18201;50.978;7.034;2023-01-25T01:15:46;29.10;;;20.70;;
31596;SDS011;18201;50.978;7.034;2023-01-25T01:16:19;28.05;;;21.60;;
31596;SDS011;18201;50.978;7.034;2023-01-25T01:16:54;30.38;;;23.13;;
31596;SDS011;18201;50.978;7.034;2023-01-25T01:17:25;28.65;;;22.70;;
31596;SDS011;18201;50.978;7.034;2023-01-25T01:17:58;30.17;;;22.40;;
31596;SDS011;18201;50.978;7.034;2023-01-25T01:18:33;29.23;;;23.45;;
31596;SDS011;18201;50.978;7.034;2023-01-25T01:19:08;30.38;;;23.00;;
31596;SDS011;18201;50.978;7.034;2023-01-25T01:19:41;29.00;;;22.60;;
31596;SDS011;18201;50.978;7.034;2023-01-25T01:20:12;28.30;;;21.52;;
31596;SDS011;18201;50.978;7.034;2023-01-25T01:20:46;29.02;;;21.30;;
31596;SDS011;18201;50.978;7.034;2023-01-25T01:21:19;27.60;;;21.40;;
31596;SDS011;18201;50.978;7.034;2023-01-25T01:21:58;28.02;;;21.60;;
31596;SDS011;18201;50.978;7.034;2023-01-25T01:22:30;28.58;;;21.75;;
31596;SDS011;18201;50.978;7.034;2023-01-25T01:23:07;25.95;;;21.45;;
31596;SDS011;18201;50.978;7.034;2023-01-25T01:23:39;26.88;;;21.08;;
31596;SDS011;18201;50.978;7.034;2023-01-25T01:24:11;26.10;;;20.85;;
31596;SDS011;18201;50.978;7.034;2023-01-25T01:24:46;26.27;;;21.08;;
31596;SDS011;18201;50.978;7.034;2023-01-25T01:25:18;29.15;;;22.55;;
31596;SDS011;18201;50.978;7.034;2023-01-25T01:25:49;24.90;;;20.25;;
31596;SDS011;18201;50.978;7.034;2023-01-25T01:26:21;29.63;;;22.83;;
31596;SDS011;18201;50.978;7.034;2023-01-25T01:26:52;27.20;;;22.42;;
31596;SDS011;18201;50.978;7.034;2023-01-25T01:27:24;27.90;;;21.77;;
31596;SDS011;18201;50.978;7.034;2023-01-25T01:27:55;26.17;;;21.63;;
31596;SDS011;18201;50.978;7.034;2023-01-25T01:28:26;28.33;;;21.90;;
31596;SDS011;18201;50.978;7.034;2023-01-25T01:28:58;28.83;;;22.00;;
31596;SDS011;18201;50.978;7.034;2023-01-25T01:29:30;27.77;;;21.67;;
31596;SDS011;18201;50.978;7.034;2023-01-25T01:30:01;28.15;;;22.67;;
31596;SDS011;18201;50.978;7.034;2023-01-25T01:30:31;30.15;;;22.85;;
31596;SDS011;18201;50.978;7.034;2023-01-25T01:31:04;26.48;;;21.02;;
31596;SDS011;18201;50.978;7.034;2023-01-25T01:31:36;28.40;;;22.02;;
31596;SDS011;18201;50.978;7.034;2023-01-25T01:32:07;25.83;;;21.65;;
31596;SDS011;18201;50.978;7.034;2023-01-25T01:32:39;25.08;;;20.45;;
31596;SDS011;18201;50.978;7.034;2023-01-25T01:33:10;27.80;;;22.48;;
31596;SDS011;18201;50.978;7.034;2023-01-25T01:33:42;28.63;;;23.27;;
31596;SDS011;18201;50.978;7.034;2023-01-25T01:34:13;27.98;;;22.33;;
31596;SDS011;18201;50.978;7.034;2023-01-25T01:34:44;27.98;;;21.30;;
31596;SDS011;18201;50.978;7.034;2023-01-25T01:35:15;29.15;;;21.55;;
31596;SDS011;18201;50.978;7.034;2023-01-25T01:35:46;28.30;;;21.90;;
31596;SDS011;18201;50.978;7.034;2023-01-25T01:36:18;26.55;;;21.20;;
31596;SDS011;18201;50.978;7.034;2023-01-25T01:36:50;28.30;;;22.58;;
31596;SDS011;18201;50.978;7.034;2023-01-25T01:37:21;27.25;;;21.30;;
31596;SDS011;18201;50.978;7.034;2023-01-25T01:37:53;26.95;;;20.77;;
31596;SDS011;18201;50.978;7.034;2023-01-25T01:38:24;28.35;;;21.77;;
31596;SDS011;18201;50.978;7.034;2023-01-25T01:38:55;26.92;;;21.50;;
31596;SDS011;18201;50.978;7.034;2023-01-25T01:39:27;29.42;;;21.83;;
31596;SDS011;18201;50.978;7.034;2023-01-25T01:39:59;28.05;;;22.35;;
31596;SDS011;18201;50.978;7.034;2023-01-25T01:40:29;29.73;;;22.60;;
31596;SDS011;18201;50.978;7.034;2023-01-25T01:41:00;29.38;;;22.38;;
31596;SDS011;18201;50.978;7.034;2023-01-25T01:41:31;28.20;;;22.05;;
31596;SDS011;18201;50.978;7.034;2023-01-25T01:42:03;26.85;;;21.58;;
31596;SDS011;18201;50.978;7.034;2023-01-25T01:43:27;28.10;;;21.20;;
31596;SDS011;18201;50.978;7.034;2023-01-25T01:44:00;27.45;;;22.83;;
31596;SDS011;18201;50.978;7.034;2023-01-25T01:45:47;29.08;;;22.30;;
31596;SDS011;18201;50.978;7.034;2023-01-25T01:46:24;27.10;;;21.33;;
31596;SDS011;18201;50.978;7.034;2023-01-25T01:46:59;30.48;;;22.73;;
31596;SDS011;18201;50.978;7.034;2023-01-25T01:47:30;29.20;;;22.48;;
31596;SDS011;18201;50.978;7.034;2023-01-25T01:48:09;22.48;;;17.38;;
31596;SDS011;18201;50.978;7.034;2023-01-25T01:48:46;28.30;;;22.70;;
31596;SDS011;18201;50.978;7.034;2023-01-25T01:49:21;32.03;;;22.63;;
31596;SDS011;18201;50.978;7.034;2023-01-25T01:49:55;28.70;;;22.02;;
31596;SDS011;18201;50.978;7.034;2023-01-25T01:50:29;27.25;;;21.52;;
31596;SDS011;18201;50.978;7.034;2023-01-25T01:51:02;30.30;;;22.55;;
31596;SDS011;18201;50.978;7.034;2023-01-25T01:51:38;28.60;;;21.98;;
31596;SDS011;18201;50.978;7.034;2023-01-25T01:52:14;28.92;;;23.02;;
31596;SDS011;18201;50.978;7.034;2023-01-25T01:52:48;29.05;;;22.73;;
31596;SDS011;18201;50.978;7.034;2023-01-25T01:53:20;28.63;;;23.15;;
31596;SDS011;18201;50.978;7.034;2023-01-25T01:53:53;26.90;;;20.95;;
31596;SDS011;18201;50.978;7.034;2023-01-25T01:54:30;32.65;;;24.30;;
31596;SDS011;18201;50.978;7.034;2023-01-25T01:55:05;30.58;;;22.13;;
31596;SDS011;18201;50.978;7.034;2023-01-25T01:55:40;32.42;;;23.20;;
31596;SDS011;18201;50.978;7.034;2023-01-25T01:56:14;29.88;;;22.77;;
31596;SDS011;18201;50.978;7.034;2023-01-25T01:56:51;28.98;;;22.38;;
31596;SDS011;18201;50.978;7.034;2023-01-25T01:57:26;28.10;;;23.08;;
31596;SDS011;18201;50.978;7.034;2023-01-25T01:58:02;31.33;;;23.52;;
31596;SDS011;18201;50.978;7.034;2023-01-25T01:58:35;28.90;;;23.63;;
31596;SDS011;18201;50.978;7.034;2023-01-25T01:59:06;29.13;;;23.33;;
31596;SDS011;18201;50.978;7.034;2023-01-25T01:59:40;31.17;;;23.45;;
31596;SDS011;18201;50.978;7.034;2023-01-25T02:00:14;29.20;;;22.60;;
31596;SDS011;18201;50.978;7.034;2023-01-25T02:00:48;31.80;;;25.15;;
31596;SDS011;18201;50.978;7.034;2023-01-25T02:01:19;31.98;;;23.48;;
31596;SDS011;18201;50.978;7.034;2023-01-25T02:01:50;28.80;;;21.85;;
31596;SDS011;18201;50.978;7.034;2023-01-25T02:02:23;32.60;;;24.30;;
31596;SDS011;18201;50.978;7.034;2023-01-25T02:02:55;29.38;;;23.38;;
31596;SDS011;18201;50.978;7.034;2023-01-25T02:03:27;32.10;;;24.88;;
31596;SDS011;18201;50.978;7.034;2023-01-25T02:04:01;32.08;;;24.27;;
31596;SDS011;18201;50.978;7.034;2023-01-25T02:04:35;32.55;;;25.02;;
31596;SDS011;18201;50.978;7.034;2023-01-25T02:05:08;30.05;;;23.08;;
31596;SDS011;18201;50.978;7.034;2023-01-25T02:05:46;33.85;;;25.08;;
31596;SDS011;18201;50.978;7.034;2023-01-25T02:06:26;30.15;;;23.50;;
31596;SDS011;18201;50.978;7.034;2023-01-25T02:07:02;30.75;;;24.13;;
31596;SDS011;18201;50.978;7.034;2023-01-25T02:07:40;31.17;;;23.45;;
31596;SDS011;18201;50.978;7.034;2023-01-25T02:08:11;28.55;;;22.13;;
31596;SDS011;18201;50.978;7.034;2023-01-25T02:08:43;28.80;;;22.50;;
31596;SDS011;18201;50.978;7.034;2023-01-25T02:09:17;29.20;;;22.85;;
31596;SDS011;18201;50.978;7.034;2023-01-25T02:09:49;31.75;;;24.33;;
31596;SDS011;18201;50.978;7.034;2023-01-25T02:10:20;30.45;;;22.85;;
31596;SDS011;18201;50.978;7.034;2023-01-25T02:10:54;30.48;;;22.75;;
31596;SDS011;18201;50.978;7.034;2023-01-25T02:11:25;32.20;;;24.38;;
31596;SDS011;18201;50.978;7.034;2023-01-25T02:11:59;29.42;;;23.63;;
31596;SDS011;18201;50.978;7.034;2023-01-25T02:12:32;30.27;;;23.42;;
31596;SDS011;18201;50.978;7.034;2023-01-25T02:13:03;29.17;;;22.63;;
31596;SDS011;18201;50.978;7.034;2023-01-25T02:13:34;34.08;;;24.40;;
31596;SDS011;18201;50.978;7.034;2023-01-25T02:14:07;29.80;;;23.80;;
31596;SDS011;18201;50.978;7.034;2023-01-25T02:14:38;30.35;;;23.55;;
31596;SDS011;18201;50.978;7.034;2023-01-25T02:15:14;32.15;;;24.90;;
31596;SDS011;18201;50.978;7.034;2023-01-25T02:15:46;29.40;;;22.70;;
31596;SDS011;18201;50.978;7.034;2023-01-25T02:16:21;31.23;;;24.60;;
31596;SDS011;18201;50.978;7.034;2023-01-25T02:16:55;32.78;;;24.63;;
31596;SDS011;18201;50.978;7.034;2023-01-25T02:17:28;31.45;;;24.63;;
31596;SDS011;18201;50.978;7.034;2023-01-25T02:18:01;30.88;;;23.33;;
31596;SDS011;18201;50.978;7.034;2023-01-25T02:18:32;30.70;;;23.52;;
31596;SDS011;18201;50.978;7.034;2023-01-25T02:19:06;27.75;;;21.63;;
31596;SDS011;18201;50.978;7.034;2023-01-25T02:19:40;32.30;;;25.42;;
31596;SDS011;18201;50.978;7.034;2023-01-25T02:20:19;28.83;;;22.08;;
31596;SDS011;18201;50.978;7.034;2023-01-25T02:20:57;27.40;;;21.70;;
31596;SDS011;18201;50.978;7.034;2023-01-25T02:21:32;27.00;;;21.63;;
31596;SDS011;18201;50.978;7.034;2023-01-25T02:22:09;29.65;;;23.50;;
31596;SDS011;18201;50.978;7.034;2023-01-25T02:22:46;29.70;;;23.27;;
31596;SDS011;18201;50.978;7.034;2023-01-25T02:23:23;30.10;;;22.50;;
31596;SDS011;18201;50.978;7.034;2023-01-25T02:23:59;30.00;;;23.95;;
31596;SDS011;18201;50.978;7.034;2023-01-25T02:24:35;29.83;;;21.83;;
31596;SDS011;18201;50.978;7.034;2023-01-25T02:25:13;28.80;;;22.80;;
31596;SDS011;18201;50.978;7.034;2023-01-25T02:25:46;30.48;;;22.75;;
31596;SDS011;18201;50.978;7.034;2023-01-25T02:26:19;28.25;;;22.80;;
31596;SDS011;18201;50.978;7.034;2023-01-25T02:26:51;27.45;;;21.67;;
31596;SDS011;18201;50.978;7.034;2023-01-25T02:27:22;29.35;;;22.33;;
31596;SDS011;18201;50.978;7.034;2023-01-25T02:27:55;31.13;;;23.45;;
31596;SDS011;18201;50.978;7.034;2023-01-25T02:28:31;30.45;;;22.00;;
31596;SDS011;18201;50.978;7.034;2023-01-25T02:29:06;31.23;;;23.50;;
31596;SDS011;18201;50.978;7.034;2023-01-25T02:29:39;31.70;;;23.67;;
31596;SDS011;18201;50.978;7.034;2023-01-25T02:30:11;28.92;;;23.15;;
31596;SDS011;18201;50.978;7.034;2023-01-25T02:30:42;30.17;;;24.05;;
31596;SDS011;18201;50.978;7.034;2023-01-25T02:31:14;31.27;;;24.45;;
31596;SDS011;18201;50.978;7.034;2023-01-25T02:31:46;31.50;;;24.30;;
31596;SDS011;18201;50.978;7.034;2023-01-25T02:32:18;32.05;;;24.13;;
31596;SDS011;18201;50.978;7.034;2023-01-25T02:32:49;31.88;;;24.38;;
31596;SDS011;18201;50.978;7.034;2023-01-25T02:33:21;32.33;;;23.73;;
31596;SDS011;18201;50.978;7.034;2023-01-25T02:33:53;32.30;;;22.20;;
31596;SDS011;18201;50.978;7.034;2023-01-25T02:34:24;31.17;;;24.05;;
31596;SDS011;18201;50.978;7.034;2023-01-25T02:34:55;28.73;;;22.45;;
31596;SDS011;18201;50.978;7.034;2023-01-25T02:35:35;30.63;;;24.50;;
31596;SDS011;18201;50.978;7.034;2023-01-25T02:36:15;32.55;;;23.83;;
31596;SDS011;18201;50.978;7.034;2023-01-25T02:36:50;32.80;;;24.25;;
31596;SDS011;18201;50.978;7.034;2023-01-25T02:37:21;32.25;;;24.23;;
31596;SDS011;18201;50.978;7.034;2023-01-25T02:37:52;35.42;;;26.10;;
31596;SDS011;18201;50.978;7.034;2023-01-25T02:38:23;34.88;;;25.20;;
31596;SDS011;18201;50.978;7.034;2023-01-25T02:38:56;30.40;;;23.23;;
31596;SDS011;18201;50.978;7.034;2023-01-25T02:39:29;33.75;;;24.83;;
31596;SDS011;18201;50.978;7.034;2023-01-25T02:40:00;31.75;;;23.48;;
31596;SDS011;18201;50.978;7.034;2023-01-25T02:40:38;35.10;;;25.70;;
31596;SDS011;18201;50.978;7.034;2023-01-25T02:41:14;34.30;;;26.55;;
31596;SDS011;18201;50.978;7.034;2023-01-25T02:41:50;35.95;;;25.60;;
31596;SDS011;18201;50.978;7.034;2023-01-25T02:42:22;32.72;;;25.55;;
31596;SDS011;18201;50.978;7.034;2023-01-25T02:42:53;32.70;;;24.15;;
31596;SDS011;18201;50.978;7.034;2023-01-25T02:43:26;33.20;;;24.48;;
31596;SDS011;18201;50.978;7.034;2023-01-25T02:43:59;32.38;;;23.52;;
31596;SDS011;18201;50.978;7.034;2023-01-25T02:44:33;30.90;;;23.75;;
31596;SDS011;18201;50.978;7.034;2023-01-25T02:45:04;31.40;;;23.65;;
31596;SDS011;18201;50.978;7.034;2023-01-25T02:45:39;33.78;;;25.48;;
31596;SDS011;18201;50.978;7.034;2023-01-25T02:46:13;32.67;;;24.80;;
31596;SDS011;18201;50.978;7.034;2023-01-25T02:46:49;30.55;;;24.17;;
31596;SDS011;18201;50.978;7.034;2023-01-25T02:47:20;27.10;;;22.73;;
31596;SDS011;18201;50.978;7.034;2023-01-25T02:47:50;34.47;;;25.55;;
31596;SDS011;18201;50.978;7.034;2023-01-25T02:48:22;31.58;;;24.40;;
31596;SDS011;18201;50.978;7.034;2023-01-25T02:48:54;33.05;;;25.45;;
31596;SDS011;18201;50.978;7.034;2023-01-25T02:49:25;33.58;;;24.38;;
31596;SDS011;18201;50.978;7.034;2023-01-25T02:49:57;32.30;;;25.30;;
31596;SDS011;18201;50.978;7.034;2023-01-25T02:50:28;31.35;;;24.90;;
31596;SDS011;18201;50.978;7.034;2023-01-25T02:50:58;33.78;;;26.45;;
31596;SDS011;18201;50.978;7.034;2023-01-25T02:51:30;33.47;;;26.42;;
31596;SDS011;18201;50.978;7.034;2023-01-25T02:52:03;31.55;;;25.33;;
31596;SDS011;18201;50.978;7.034;2023-01-25T02:52:34;34.10;;;24.95;;
31596;SDS011;18201;50.978;7.034;2023-01-25T02:53:05;32.15;;;24.77;;
31596;SDS011;18201;50.978;7.034;2023-01-25T02:53:37;34.28;;;26.08;;
31596;SDS011;18201;50.978;7.034;2023-01-25T02:54:08;32.85;;;25.10;;
31596;SDS011;18201;50.978;7.034;2023-01-25T02:54:40;32.50;;;24.67;;
31596;SDS011;18201;50.978;7.034;2023-01-25T02:55:12;31.20;;;24.02;;
31596;SDS011;18201;50.978;7.034;2023-01-25T02:55:44;35.13;;;26.08;;
31596;SDS011;18201;50.978;7.034;2023-01-25T02:56:15;33.72;;;25.08;;
31596;SDS011;18201;50.978;7.034;2023-01-25T02:56:47;33.20;;;24.90;;
31596;SDS011;18201;50.978;7.034;2023-01-25T02:57:19;32.65;;;25.60;;
31596;SDS011;18201;50.978;7.034;2023-01-25T02:57:50;32.13;;;24.63;;
31596;SDS011;18201;50.978;7.034;2023-01-25T02:58:21;29.35;;;23.60;;
31596;SDS011;18201;50.978;7.034;2023-01-25T02:58:53;31.00;;;24.48;;
31596;SDS011;18201;50.978;7.034;2023-01-25T02:59:25;31.27;;;24.60;;
31596;SDS011;18201;50.978;7.034;2023-01-25T02:59:55;32.20;;;25.60;;
31596;SDS011;18201;50.978;7.034;2023-01-25T03:00:26;32.67;;;24.55;;
31596;SDS011;18201;50.978;7.034;2023-01-25T03:00:58;35.08;;;25.35;;
31596;SDS011;18201;50.978;7.034;2023-01-25T03:01:30;33.50;;;25.45;;
31596;SDS011;18201;50.978;7.034;2023-01-25T03:02:01;33.60;;;26.00;;
31596;SDS011;18201;50.978;7.034;2023-01-25T03:02:33;32.28;;;25.00;;
31596;SDS011;18201;50.978;7.034;2023-01-25T03:03:04;33.25;;;24.60;;
31596;SDS011;18201;50.978;7.034;2023-01-25T03:03:35;31.83;;;24.95;;
31596;SDS011;18201;50.978;7.034;2023-01-25T03:04:06;31.88;;;25.10;;
31596;SDS011;18201;50.978;7.034;2023-01-25T03:04:38;32.53;;;24.63;;
31596;SDS011;18201;50.978;7.034;2023-01-25T03:05:09;31.85;;;25.27;;
31596;SDS011;18201;50.978;7.034;2023-01-25T03:05:40;32.72;;;25.95;;
31596;SDS011;18201;50.978;7.034;2023-01-25T03:06:11;31.40;;;24.60;;
31596;SDS011;18201;50.978;7.034;2023-01-25T03:06:42;32.35;;;24.92;;
31596;SDS011;18201;50.978;7.034;2023-01-25T03:07:13;30.90;;;24.45;;
31596;SDS011;18201;50.978;7.034;2023-01-25T03:07:45;32.38;;;25.63;;
31596;SDS011;18201;50.978;7.034;2023-01-25T03:08:16;32.10;;;24.05;;
31596;SDS011;18201;50.978;7.034;2023-01-25T03:08:47;32.30;;;24.88;;
31596;SDS011;18201;50.978;7.034;2023-01-25T03:09:19;30.88;;;24.70;;
31596;SDS011;18201;50.978;7.034;2023-01-25T03:09:49;30.48;;;23.88;;
31596;SDS011;18201;50.978;7.034;2023-01-25T03:10:20;30.90;;;23.92;;
31596;SDS011;18201;50.978;7.034;2023-01-25T03:10:56;33.22;;;25.20;;
31596;SDS011;18201;50.978;7.034;2023-01-25T03:11:27;30.15;;;24.45;;
31596;SDS011;18201;50.978;7.034;2023-01-25T03:11:58;32.58;;;23.83;;
31596;SDS011;18201;50.978;7.034;2023-01-25T03:12:30;29.90;;;23.58;;
31596;SDS011;18201;50.978;7.034;2023-01-25T03:13:01;28.88;;;22.33;;
31596;SDS011;18201;50.978;7.034;2023-01-25T03:13:32;32.08;;;24.90;;
31596;SDS011;18201;50.978;7.034;2023-01-25T03:14:05;27.50;;;22.17;;
31596;SDS011;18201;50.978;7.034;2023-01-25T03:14:36;30.77;;;24.10;;
31596;SDS011;18201;50.978;7.034;2023-01-25T03:15:07;30.58;;;23.67;;
31596;SDS011;18201;50.978;7.034;2023-01-25T03:15:39;29.77;;;24.45;;